Time;durP1;ratioP1;P1;durP2;ratioP2;P2;SDS_P1;SDS_P2;PMS_P1;PMS_P2;Temp;Humidity;BMP_temperature;BMP_pressure;BME280_temperature;BME280_humidity;BME280_pressure;Samples;Min_cycle;Max_cycle;Signal;HPM_P1;HPM_P2
2023/01/28 00:00:08;;;;;;;13.18;11.73;;;3.20;99.90;;;;;;5050440;28;20542;-70
2023/01/28 00:02:34;;;;;;;13.60;11.88;;;3.10;99.90;;;;;;5038515;28;20056;-71
2023/01/28 00:05:00;;;;;;;13.67;12.27;;;3.10;99.90;;;;;;5044367;28;20041;-71
2023/01/28 00:07:26;;;;;;;14.50;13.00;;;3.10;99.90;;;;;;5049815;28;20033;-71
2023/01/28 00:09:52;;;;;;;14.30;12.80;;;3.10;99.90;;;;;;5046221;28;20051;-70
2023/01/28 00:12:18;;;;;;;13.75;12.25;;;3.10;99.90;;;;;;5046349;28;20485;-71
2023/01/28 00:14:45;;;;;;;14.68;12.73;;;3.10;99.90;;;;;;5046047;28;20091;-71
2023/01/28 00:17:11;;;;;;;14.10;12.70;;;3.10;99.90;;;;;;5047913;28;20048;-71
2023/01/28 00:19:37;;;;;;;14.18;12.68;;;3.10;99.90;;;;;;5034046;28;20063;-71
2023/01/28 00:22:03;;;;;;;13.63;12.23;;;3.10;99.90;;;;;;5048698;28;20107;-71
2023/01/28 00:24:29;;;;;;;15.25;13.40;;;3.10;99.90;;;;;;5046436;28;20044;-71
2023/01/28 00:26:55;;;;;;;14.20;12.70;;;3.10;99.90;;;;;;5045749;28;20047;-70
2023/01/28 00:29:20;;;;;;;15.02;13.45;;;3.10;99.90;;;;;;5030723;28;20132;-70
2023/01/28 00:31:46;;;;;;;14.25;12.75;;;3.10;99.90;;;;;;5049600;28;20060;-71
2023/01/28 00:34:12;;;;;;;14.57;13.07;;;3.10;99.90;;;;;;5048266;28;20036;-71
2023/01/28 00:36:38;;;;;;;14.52;13.02;;;3.10;99.90;;;;;;5043089;28;20053;-71
2023/01/28 00:39:04;;;;;;;15.55;13.77;;;3.10;99.90;;;;;;5049763;28;20052;-71
2023/01/28 00:41:30;;;;;;;14.90;13.35;;;3.10;99.90;;;;;;5046442;28;20048;-71
2023/01/28 00:43:57;;;;;;;15.18;13.50;;;3.10;99.90;;;;;;5049576;28;20044;-71
2023/01/28 00:46:25;;;;;;;13.75;12.35;;;3.10;99.90;;;;;;5044592;28;20037;-70
2023/01/28 00:48:50;;;;;;;13.60;11.98;;;3.10;99.90;;;;;;5044960;28;20049;-71
2023/01/28 00:51:18;;;;;;;14.18;12.73;;;3.10;99.90;;;;;;5032891;28;20056;-71
2023/01/28 00:53:44;;;;;;;14.68;12.52;;;3.10;99.90;;;;;;5038915;28;20064;-71
2023/01/28 00:56:13;;;;;;;13.77;12.30;;;3.10;99.90;;;;;;5049388;28;20033;-71
2023/01/28 00:58:39;;;;;;;15.23;12.55;;;3.10;99.90;;;;;;5045299;28;20047;-71
2023/01/28 01:01:17;;;;;;;13.32;11.93;;;3.10;99.90;;;;;;5047237;28;20340;-71
2023/01/28 01:03:43;;;;;;;13.90;12.43;;;3.10;99.90;;;;;;5040530;28;20053;-71
2023/01/28 01:06:10;;;;;;;14.25;12.75;;;3.10;99.90;;;;;;5046456;28;20048;-71
2023/01/28 01:08:38;;;;;;;14.10;12.18;;;3.00;99.90;;;;;;5047799;28;20123;-71
2023/01/28 01:11:05;;;;;;;14.48;12.98;;;3.00;99.90;;;;;;5048332;28;20041;-71
2023/01/28 01:13:33;;;;;;;14.85;13.35;;;3.00;99.90;;;;;;5048942;28;20048;-70
2023/01/28 01:16:17;;;;;;;14.82;13.32;;;3.00;99.90;;;;;;5049834;28;20488;-70
2023/01/28 01:18:43;;;;;;;14.85;13.35;;;3.00;99.90;;;;;;5047682;28;20060;-71
2023/01/28 01:21:17;;;;;;;14.73;13.27;;;3.00;99.90;;;;;;5046550;28;20133;-71
2023/01/28 01:23:44;;;;;;;15.23;13.80;;;3.00;99.90;;;;;;5042992;28;20053;-71
2023/01/28 01:26:10;;;;;;;14.40;13.00;;;3.00;99.90;;;;;;5050348;28;20083;-71
2023/01/28 01:28:36;;;;;;;15.23;13.82;;;3.00;99.90;;;;;;5045936;28;20150;-70
2023/01/28 01:31:04;;;;;;;15.10;13.70;;;2.90;99.90;;;;;;5050386;28;20045;-71
2023/01/28 01:33:31;;;;;;;14.65;13.35;;;2.90;99.90;;;;;;5044542;28;20045;-71
2023/01/28 01:35:57;;;;;;;14.18;12.90;;;2.90;99.90;;;;;;5043624;28;20037;-70
2023/01/28 01:38:23;;;;;;;14.37;12.97;;;2.80;99.90;;;;;;5046185;28;20061;-71
2023/01/28 01:40:49;;;;;;;14.38;13.07;;;2.80;99.90;;;;;;5048975;28;20045;-71
2023/01/28 01:43:20;;;;;;;13.73;12.43;;;2.80;99.90;;;;;;5046585;28;20099;-71
2023/01/28 01:45:59;;;;;;;13.93;12.68;;;2.90;99.90;;;;;;5047275;28;20072;-70
2023/01/28 01:48:32;;;;;;;13.50;11.77;;;2.90;99.90;;;;;;5032592;28;20056;-71
2023/01/28 01:50:59;;;;;;;12.52;11.30;;;2.90;99.90;;;;;;5035404;28;20983;-71
2023/01/28 01:53:27;;;;;;;12.73;11.52;;;2.90;99.90;;;;;;5039167;28;20053;-70
2023/01/28 01:56:00;;;;;;;13.13;11.93;;;2.80;99.90;;;;;;5043999;28;20385;-71
2023/01/28 01:58:29;;;;;;;12.23;11.05;;;2.80;99.90;;;;;;5045736;28;20353;-71
2023/01/28 02:00:56;;;;;;;12.50;11.40;;;2.80;99.90;;;;;;5047532;28;20056;-70
2023/01/28 02:03:33;;;;;;;12.18;11.07;;;2.80;99.90;;;;;;5045052;28;20049;-70
2023/01/28 02:05:59;;;;;;;12.52;11.38;;;2.80;99.90;;;;;;5046610;28;20053;-71
2023/01/28 02:08:25;;;;;;;12.52;11.32;;;2.60;99.90;;;;;;5047117;28;20068;-71
2023/01/28 02:10:59;;;;;;;12.43;11.23;;;2.70;99.90;;;;;;5046455;28;20518;-70
2023/01/28 02:13:30;;;;;;;11.90;10.80;;;2.70;99.90;;;;;;5041545;28;20045;-71
2023/01/28 02:15:59;;;;;;;12.20;11.00;;;2.70;99.90;;;;;;5051305;28;20076;-70
2023/01/28 02:18:25;;;;;;;12.13;10.82;;;2.70;99.90;;;;;;5052109;28;20554;-71
2023/01/28 02:21:22;;;;;;;11.32;10.23;;;2.70;99.90;;;;;;5050466;28;20045;-71
2023/01/28 02:24:31;;;;;;;10.55;9.65;;;2.70;99.90;;;;;;5052006;28;20099;-70
2023/01/28 02:27:02;;;;;;;11.07;9.90;;;2.60;99.90;;;;;;5001875;28;20062;-71
2023/01/28 02:30:12;;;;;;;11.60;10.60;;;2.60;99.90;;;;;;5036258;28;20060;-71
2023/01/28 02:32:56;;;;;;;11.27;10.10;;;2.60;99.90;;;;;;5044185;28;20041;-71
2023/01/28 02:35:44;;;;;;;11.23;10.15;;;2.60;99.90;;;;;;5051821;28;20124;-70
2023/01/28 02:38:17;;;;;;;11.20;10.15;;;2.60;99.90;;;;;;5042298;28;20053;-71
2023/01/28 02:41:01;;;;;;;10.85;9.88;;;2.60;99.90;;;;;;5035408;28;20405;-70
2023/01/28 02:43:34;;;;;;;11.50;10.40;;;2.60;99.90;;;;;;5037750;28;20041;-71
2023/01/28 02:48:54;;;;;;;11.05;10.00;;;2.70;99.90;;;;;;5044271;28;20053;-70
2023/01/28 02:51:51;;;;;;;11.70;10.50;;;2.70;99.90;;;;;;5041783;28;20046;-71
2023/01/28 02:54:22;;;;;;;;;;;2.70;99.90;;;;;;5046323;28;20522;-70
2023/01/28 02:56:58;;;;;;;10.73;9.73;;;2.70;99.90;;;;;;5038257;28;19925;-70
2023/01/28 02:59:35;;;;;;;11.30;10.30;;;2.70;99.90;;;;;;5049606;28;20048;-71
2023/01/28 03:02:11;;;;;;;10.45;9.55;;;2.70;99.90;;;;;;5049667;28;20055;-71
2023/01/28 03:04:59;;;;;;;11.23;10.18;;;2.70;99.90;;;;;;5041150;28;20945;-71
2023/01/28 03:07:28;;;;;;;11.32;10.20;;;2.70;99.90;;;;;;5041084;28;20037;-71
2023/01/28 03:09:57;;;;;;;11.18;10.13;;;2.60;99.90;;;;;;5049691;28;20040;-70
2023/01/28 03:38:47;;;;;;;11.23;10.25;;;2.70;99.90;;;;;;5041434;28;20040;-71
2023/01/28 03:41:23;;;;;;;11.88;10.70;;;2.70;99.90;;;;;;5050052;28;20071;-71
2023/01/28 03:43:49;;;;;;;10.95;9.95;;;2.60;99.90;;;;;;5039193;28;20041;-71
2023/01/28 03:46:15;;;;;;;10.90;9.80;;;2.60;99.90;;;;;;5048136;28;20541;-71
2023/01/28 03:48:41;;;;;;;11.27;10.20;;;2.60;99.90;;;;;;5051364;28;20041;-70
2023/01/28 03:51:07;;;;;;;10.82;9.82;;;2.60;99.90;;;;;;5047264;28;20412;-71
2023/01/28 03:53:32;;;;;;;11.38;10.38;;;2.60;99.90;;;;;;5066339;28;20037;-70
2023/01/28 03:55:58;;;;;;;11.43;10.23;;;2.50;99.90;;;;;;5049036;28;20430;-70
2023/01/28 03:58:51;;;;;;;11.07;10.05;;;2.50;99.90;;;;;;5045704;28;20509;-71
2023/01/28 04:01:13;;;;;;;9.45;8.55;;;2.50;99.90;;;;;;5047533;28;20122;-70
2023/01/28 04:03:38;;;;;;;9.55;8.65;;;2.50;99.90;;;;;;5041912;28;20048;-71
2023/01/28 04:06:06;;;;;;;9.82;8.60;;;2.40;99.90;;;;;;5048472;28;20045;-71
2023/01/28 04:08:32;;;;;;;10.43;8.90;;;2.40;99.90;;;;;;5034562;28;20484;-71
2023/01/28 04:11:14;;;;;;;9.82;8.82;;;2.30;99.90;;;;;;5047815;28;20126;-71
2023/01/28 04:13:41;;;;;;;9.20;8.30;;;2.40;99.90;;;;;;5045424;28;20394;-70
2023/01/28 04:16:07;;;;;;;10.10;8.47;;;2.30;99.90;;;;;;5043420;28;20045;-70
2023/01/28 04:18:33;;;;;;;9.35;8.43;;;2.30;99.90;;;;;;5047385;28;20315;-70
2023/01/28 04:20:59;;;;;;;10.48;8.77;;;2.30;99.90;;;;;;5050166;28;20037;-70
2023/01/28 04:23:25;;;;;;;12.88;8.30;;;2.30;99.90;;;;;;5034635;28;20036;-70
2023/01/28 04:25:51;;;;;;;9.13;8.00;;;2.40;99.90;;;;;;5045765;28;20101;-71
2023/01/28 04:28:16;;;;;;;8.65;7.75;;;2.40;99.90;;;;;;5049999;28;20114;-71
2023/01/28 04:30:42;;;;;;;15.07;9.35;;;2.40;99.90;;;;;;5046023;28;20045;-71
2023/01/28 04:33:08;;;;;;;11.63;9.15;;;2.40;99.90;;;;;;5046303;28;20045;-71
2023/01/28 04:35:33;;;;;;;10.50;8.60;;;2.50;99.90;;;;;;5037025;28;20033;-71
2023/01/28 04:37:59;;;;;;;10.02;8.55;;;2.50;99.90;;;;;;5050093;28;20057;-71
2023/01/28 04:40:25;;;;;;;9.25;8.35;;;2.50;99.90;;;;;;5046227;28;20045;-71
2023/01/28 04:42:57;;;;;;;8.60;7.80;;;2.50;99.90;;;;;;5048985;28;20045;-71
2023/01/28 04:45:23;;;;;;;9.23;8.32;;;2.50;99.90;;;;;;5047844;28;20048;-71
2023/01/28 04:47:49;;;;;;;9.65;8.60;;;2.50;99.90;;;;;;5045026;28;20037;-71
2023/01/28 04:50:15;;;;;;;8.88;7.97;;;2.50;99.90;;;;;;5045369;28;20442;-71
2023/01/28 04:52:40;;;;;;;9.93;7.88;;;2.50;99.90;;;;;;5048734;28;20041;-71
2023/01/28 04:55:07;;;;;;;9.20;8.30;;;2.50;99.90;;;;;;5050259;28;20037;-71
2023/01/28 04:57:32;;;;;;;9.18;8.20;;;2.50;99.90;;;;;;5078677;28;20077;-71
2023/01/28 04:59:58;;;;;;;8.63;7.82;;;2.40;99.90;;;;;;5047857;28;20480;-72
2023/01/28 05:02:24;;;;;;;9.70;8.60;;;2.50;99.90;;;;;;5045367;28;20139;-71
2023/01/28 05:04:49;;;;;;;9.00;7.82;;;2.50;99.90;;;;;;5037001;28;20064;-72
2023/01/28 05:07:15;;;;;;;9.30;8.40;;;2.50;99.90;;;;;;5048742;28;20499;-71
2023/01/28 05:09:41;;;;;;;9.25;7.95;;;2.50;99.90;;;;;;5041480;28;20045;-72
2023/01/28 05:12:06;;;;;;;9.75;8.00;;;2.40;99.90;;;;;;5050532;28;20060;-72
2023/01/28 05:14:32;;;;;;;9.25;8.23;;;2.40;99.90;;;;;;5044722;28;20139;-72
2023/01/28 05:16:57;;;;;;;8.70;7.80;;;2.40;99.90;;;;;;5050561;28;20041;-71
2023/01/28 05:19:23;;;;;;;8.85;7.72;;;2.40;99.90;;;;;;5048131;28;20446;-72
2023/01/28 05:21:49;;;;;;;9.55;8.52;;;2.50;99.90;;;;;;5049806;28;20504;-72
2023/01/28 05:24:14;;;;;;;8.68;7.78;;;2.40;99.90;;;;;;5044987;28;20069;-72
2023/01/28 05:26:40;;;;;;;8.82;7.93;;;2.50;99.90;;;;;;5050040;28;20084;-72
2023/01/28 05:29:06;;;;;;;9.30;8.38;;;2.50;99.90;;;;;;5038313;28;20049;-71
2023/01/28 05:31:32;;;;;;;9.25;8.25;;;2.40;99.90;;;;;;5030371;28;20201;-72
2023/01/28 05:33:58;;;;;;;9.15;8.23;;;2.40;99.90;;;;;;5039521;28;20136;-72
2023/01/28 05:36:23;;;;;;;8.45;7.55;;;2.50;99.90;;;;;;5048308;28;20064;-72
2023/01/28 05:38:49;;;;;;;9.82;8.38;;;2.40;99.90;;;;;;5049086;28;20382;-71
2023/01/28 05:41:15;;;;;;;8.90;8.00;;;2.40;99.90;;;;;;5047893;28;20132;-71
2023/01/28 05:43:41;;;;;;;9.13;8.18;;;2.40;99.90;;;;;;5046190;28;20135;-72
2023/01/28 05:46:06;;;;;;;9.15;7.93;;;2.40;99.90;;;;;;5049658;28;20392;-72
2023/01/28 05:48:32;;;;;;;8.35;7.47;;;2.40;99.90;;;;;;5045977;28;20049;-71
2023/01/28 05:50:57;;;;;;;9.88;8.32;;;2.30;99.90;;;;;;5051702;28;20053;-72
2023/01/28 05:53:23;;;;;;;10.00;8.32;;;2.30;99.90;;;;;;5050797;28;20554;-71
2023/01/28 05:55:50;;;;;;;9.90;8.38;;;2.30;99.90;;;;;;5050417;28;20045;-71
2023/01/28 05:58:16;;;;;;;9.23;8.05;;;2.30;99.90;;;;;;5044642;28;20045;-71
2023/01/28 06:00:42;;;;;;;9.70;8.10;;;2.30;99.90;;;;;;5052972;28;20044;-71
2023/01/28 06:03:07;;;;;;;9.60;8.10;;;2.30;99.90;;;;;;5052204;28;20312;-72
2023/01/28 06:05:33;;;;;;;11.65;8.75;;;2.20;99.90;;;;;;5050968;28;20048;-72
2023/01/28 06:07:59;;;;;;;9.02;8.13;;;2.20;99.90;;;;;;5050342;28;20075;-71
2023/01/28 06:10:24;;;;;;;10.27;8.18;;;2.30;99.90;;;;;;5050107;28;20037;-71
2023/01/28 06:12:50;;;;;;;8.77;7.80;;;2.20;99.90;;;;;;5047712;28;20041;-71
2023/01/28 06:15:16;;;;;;;9.40;8.32;;;2.20;99.90;;;;;;5049254;28;20040;-71
2023/01/28 06:17:41;;;;;;;8.90;8.00;;;2.20;99.90;;;;;;5051807;28;20037;-72
2023/01/28 06:20:08;;;;;;;9.20;8.23;;;2.20;99.90;;;;;;5050376;28;20045;-71
2023/01/28 06:22:33;;;;;;;9.35;8.35;;;2.20;99.90;;;;;;5051134;28;20052;-72
2023/01/28 06:24:59;;;;;;;9.10;8.15;;;2.20;99.90;;;;;;5049360;28;20036;-72
2023/01/28 06:27:24;;;;;;;9.80;7.97;;;2.20;99.90;;;;;;5046137;28;20029;-71
2023/01/28 06:29:50;;;;;;;8.95;7.93;;;2.20;99.90;;;;;;5046798;28;20048;-72
2023/01/28 06:32:16;;;;;;;9.45;7.93;;;2.20;99.90;;;;;;5047477;28;20546;-71
2023/01/28 06:34:41;;;;;;;8.43;7.53;;;2.30;99.90;;;;;;5050383;28;20523;-72
2023/01/28 06:37:07;;;;;;;9.20;8.20;;;2.30;99.90;;;;;;5047532;28;20550;-72
2023/01/28 06:39:33;;;;;;;10.82;8.38;;;2.30;99.90;;;;;;5050288;28;20128;-72
2023/01/28 06:41:59;;;;;;;9.43;8.20;;;2.30;99.90;;;;;;5051119;28;20395;-72
2023/01/28 06:44:25;;;;;;;9.65;8.65;;;2.30;99.90;;;;;;5046843;28;20100;-71
2023/01/28 06:46:51;;;;;;;10.55;8.35;;;2.20;99.90;;;;;;5045322;28;20041;-70
2023/01/28 06:49:16;;;;;;;9.32;8.43;;;2.20;99.90;;;;;;5047615;28;20139;-71
2023/01/28 06:51:42;;;;;;;9.50;8.32;;;2.20;99.90;;;;;;5049435;28;20045;-71
2023/01/28 06:54:08;;;;;;;9.82;8.60;;;2.20;99.90;;;;;;5043662;28;20038;-71
2023/01/28 06:56:33;;;;;;;8.80;7.90;;;2.20;99.90;;;;;;5045989;28;20041;-71
2023/01/28 06:58:59;;;;;;;10.25;8.68;;;2.10;99.90;;;;;;5050376;28;20040;-71
2023/01/28 07:01:25;;;;;;;10.30;9.20;;;2.10;99.90;;;;;;5045336;28;20532;-71
2023/01/28 07:03:51;;;;;;;13.10;9.85;;;2.10;99.90;;;;;;5047495;28;20075;-71
2023/01/28 07:06:17;;;;;;;9.77;8.77;;;2.10;99.90;;;;;;5046471;28;20029;-69
2023/01/28 07:08:42;;;;;;;10.23;9.23;;;2.10;99.90;;;;;;5045043;28;20057;-69
2023/01/28 07:11:08;;;;;;;10.80;9.55;;;2.10;99.90;;;;;;5049851;28;20080;-69
2023/01/28 07:13:34;;;;;;;9.88;8.88;;;2.20;99.90;;;;;;5042703;28;20049;-70
2023/01/28 07:16:01;;;;;;;10.77;9.10;;;2.10;99.90;;;;;;5043036;28;20060;-70
2023/01/28 07:18:26;;;;;;;11.05;9.05;;;2.10;99.90;;;;;;5049253;28;20036;-69
2023/01/28 07:20:52;;;;;;;11.50;9.40;;;2.20;99.90;;;;;;5039650;28;20120;-70
2023/01/28 07:23:18;;;;;;;16.80;10.32;;;2.10;99.90;;;;;;5046101;28;20102;-71
2023/01/28 07:25:44;;;;;;;12.05;9.15;;;2.10;99.90;;;;;;5050751;28;20044;-71
2023/01/28 07:28:10;;;;;;;10.45;9.23;;;2.20;99.90;;;;;;5034807;28;20115;-71
2023/01/28 07:30:36;;;;;;;11.32;9.32;;;2.10;99.90;;;;;;5048550;28;20047;-71
2023/01/28 07:33:02;;;;;;;10.52;9.25;;;2.10;99.90;;;;;;5046252;28;20124;-72
2023/01/28 07:35:28;;;;;;;11.43;9.73;;;2.10;99.90;;;;;;5047520;28;20064;-71
2023/01/28 07:37:56;;;;;;;11.65;9.75;;;2.10;99.90;;;;;;5049232;28;20568;-69
2023/01/28 07:40:23;;;;;;;11.25;9.40;;;2.10;99.90;;;;;;5048543;28;20102;-69
2023/01/28 07:42:49;;;;;;;11.63;9.70;;;2.20;99.90;;;;;;5046794;28;20523;-69
2023/01/28 07:45:15;;;;;;;11.32;9.95;;;2.20;99.90;;;;;;5042952;28;20299;-70
2023/01/28 07:47:41;;;;;;;11.30;9.88;;;2.10;99.90;;;;;;5041175;28;20695;-70
2023/01/28 07:50:09;;;;;;;15.27;10.20;;;2.20;99.90;;;;;;5043390;28;20576;-70
2023/01/28 07:52:42;;;;;;;;;;;2.20;99.90;;;;;;5048933;28;20052;-70
2023/01/28 07:55:10;;;;;;;10.70;9.32;;;2.20;99.90;;;;;;5050582;28;19928;-70
2023/01/28 07:57:36;;;;;;;10.93;9.63;;;2.20;99.90;;;;;;5048203;28;20033;-69
2023/01/28 08:00:02;;;;;;;11.48;10.30;;;2.10;99.90;;;;;;5046576;28;20048;-70
2023/01/28 08:02:29;;;;;;;11.70;10.07;;;2.20;99.90;;;;;;5048784;28;20135;-69
2023/01/28 08:04:58;;;;;;;11.93;10.20;;;2.20;99.90;;;;;;5044035;28;20080;-69
2023/01/28 08:07:24;;;;;;;10.95;9.70;;;2.20;99.90;;;;;;5047574;28;20056;-69
2023/01/28 08:09:50;;;;;;;11.07;9.73;;;2.20;99.90;;;;;;5068100;28;20041;-69
2023/01/28 08:12:16;;;;;;;12.90;10.05;;;2.20;99.90;;;;;;5046635;28;20218;-69
2023/01/28 08:14:42;;;;;;;13.30;10.15;;;2.20;99.90;;;;;;5049341;28;20503;-70
2023/01/28 08:17:17;;;;;;;14.68;10.45;;;2.20;99.90;;;;;;5049202;28;20041;-69
2023/01/28 08:19:43;;;;;;;13.50;10.20;;;2.20;99.90;;;;;;5048254;28;20049;-70
2023/01/28 08:22:08;;;;;;;14.07;10.55;;;2.20;99.90;;;;;;5078976;28;20041;-71
2023/01/28 08:24:34;;;;;;;15.65;12.73;;;2.20;99.90;;;;;;5046825;28;20048;-71
2023/01/28 08:27:00;;;;;;;14.68;11.82;;;2.30;99.90;;;;;;5047959;28;20052;-70
2023/01/28 08:29:26;;;;;;;16.52;12.85;;;2.30;99.90;;;;;;5043993;28;20094;-69
2023/01/28 08:31:52;;;;;;;14.48;12.45;;;2.30;99.90;;;;;;5041830;28;20499;-70
2023/01/28 08:34:18;;;;;;;17.17;13.90;;;2.30;99.90;;;;;;5045851;28;20183;-70
2023/01/28 08:36:43;;;;;;;14.90;12.98;;;2.30;99.90;;;;;;5042502;28;20068;-71
2023/01/28 08:39:09;;;;;;;15.00;13.13;;;2.30;99.90;;;;;;5047184;28;20554;-71
2023/01/28 08:41:34;;;;;;;16.90;13.90;;;2.40;99.90;;;;;;5041683;28;20045;-72
2023/01/28 08:44:00;;;;;;;16.15;13.70;;;2.40;99.90;;;;;;5044783;28;20049;-72
2023/01/28 08:46:26;;;;;;;15.60;13.63;;;2.50;99.90;;;;;;5050510;28;20151;-72
2023/01/28 08:48:51;;;;;;;17.40;14.63;;;2.40;99.90;;;;;;5050177;28;20124;-74
2023/01/28 08:51:17;;;;;;;16.08;13.45;;;2.40;99.90;;;;;;5049134;28;20037;-74
2023/01/28 08:53:43;;;;;;;16.90;14.63;;;2.40;99.90;;;;;;5046617;28;20053;-74
2023/01/28 08:56:08;;;;;;;16.40;14.15;;;2.40;99.90;;;;;;5031024;28;20040;-73
2023/01/28 08:58:34;;;;;;;18.17;14.50;;;2.40;99.90;;;;;;5029927;28;20439;-75
2023/01/28 09:01:06;;;;;;;18.15;14.63;;;2.40;99.90;;;;;;5039594;28;20502;-77
2023/01/28 09:03:32;;;;;;;18.83;14.52;;;2.40;99.90;;;;;;5046383;28;20045;-75
2023/01/28 09:06:04;;;;;;;17.45;14.43;;;2.40;99.90;;;;;;5038362;28;20040;-75
2023/01/28 09:08:30;;;;;;;17.35;14.70;;;2.40;99.90;;;;;;5030378;28;20049;-75
2023/01/28 09:10:57;;;;;;;19.05;15.15;;;2.40;99.90;;;;;;5031282;28;20045;-75
2023/01/28 09:13:23;;;;;;;20.40;15.10;;;2.50;99.90;;;;;;5029800;28;20080;-70
2023/01/28 09:15:50;;;;;;;17.77;14.50;;;2.50;99.90;;;;;;5046464;28;20452;-76
2023/01/28 09:18:16;;;;;;;18.52;15.13;;;2.50;99.90;;;;;;5049813;28;20041;-74
2023/01/28 09:20:42;;;;;;;17.23;13.95;;;2.60;99.90;;;;;;5040977;28;20038;-74
2023/01/28 09:23:08;;;;;;;16.35;14.10;;;2.60;99.90;;;;;;5030511;28;20096;-72
2023/01/28 09:25:35;;;;;;;17.30;14.88;;;2.60;99.90;;;;;;5047795;28;20583;-75
2023/01/28 09:28:01;;;;;;;16.75;13.73;;;2.70;99.90;;;;;;5046439;28;20266;-74
2023/01/28 09:30:27;;;;;;;16.27;14.55;;;2.70;99.90;;;;;;5047615;28;20091;-74
2023/01/28 09:32:54;;;;;;;15.68;14.07;;;2.80;99.90;;;;;;5050646;28;20041;-74
2023/01/28 09:35:20;;;;;;;17.30;14.07;;;2.80;99.90;;;;;;5049352;28;20044;-71
2023/01/28 09:37:46;;;;;;;16.75;14.43;;;2.90;99.90;;;;;;5049342;28;20500;-75
2023/01/28 09:40:26;;;;;;;15.32;13.30;;;3.00;99.90;;;;;;5046446;28;20052;-73
2023/01/28 09:43:04;;;;;;;16.98;13.50;;;3.00;99.90;;;;;;5036720;28;20080;-73
2023/01/28 09:45:41;;;;;;;14.63;12.93;;;3.00;99.90;;;;;;5049281;28;20037;-73
2023/01/28 09:48:14;;;;;;;15.65;13.95;;;3.00;99.90;;;;;;5045806;28;20107;-74
2023/01/28 09:50:44;;;;;;;15.00;13.40;;;3.00;99.90;;;;;;5046500;28;20049;-73
2023/01/28 09:53:20;;;;;;;15.50;13.77;;;3.10;99.90;;;;;;5046133;28;20044;-69
2023/01/28 09:55:50;;;;;;;15.18;13.48;;;3.10;99.90;;;;;;5048506;28;20044;-69
2023/01/28 09:58:17;;;;;;;17.23;13.95;;;3.20;99.90;;;;;;5046435;28;20045;-68
2023/01/28 10:00:51;;;;;;;15.13;13.63;;;3.20;99.90;;;;;;5049545;28;20450;-69
2023/01/28 10:03:41;;;;;;;15.90;14.00;;;3.20;99.90;;;;;;5045698;28;20085;-69
2023/01/28 10:06:25;;;;;;;16.00;14.30;;;3.30;99.90;;;;;;5048197;28;20096;-69
2023/01/28 10:09:09;;;;;;;16.48;13.48;;;3.20;99.90;;;;;;5046994;28;20120;-69
2023/01/28 10:12:07;;;;;;;15.05;12.98;;;3.30;99.90;;;;;;5037853;28;20037;-72
2023/01/28 10:14:42;;;;;;;15.80;13.65;;;3.30;99.90;;;;;;5031579;28;20062;-75
2023/01/28 10:17:16;;;;;;;15.13;12.95;;;3.30;99.90;;;;;;5045651;28;20072;-72
2023/01/28 10:20:01;;;;;;;15.57;13.85;;;3.30;99.90;;;;;;5045125;28;20064;-73
2023/01/28 10:22:36;;;;;;;16.08;14.38;;;3.30;99.90;;;;;;5048258;28;20053;-72
2023/01/28 10:25:07;;;;;;;15.18;13.38;;;3.40;99.90;;;;;;5046003;28;20120;-74
2023/01/28 10:27:34;;;;;;;16.05;14.35;;;3.40;99.90;;;;;;5047095;28;20395;-75
2023/01/28 10:30:21;;;;;;;15.85;14.02;;;3.40;99.90;;;;;;5048673;28;20080;-73
2023/01/28 10:33:00;;;;;;;14.30;12.80;;;3.50;99.90;;;;;;5043835;28;20052;-71
2023/01/28 10:35:26;;;;;;;16.27;13.88;;;3.40;99.90;;;;;;5042673;28;20045;-73
2023/01/28 10:38:01;;;;;;;14.75;13.18;;;3.50;99.90;;;;;;5049816;28;20099;-72
2023/01/28 10:40:26;;;;;;;14.25;12.75;;;3.50;99.90;;;;;;5050951;28;20055;-71
2023/01/28 10:42:52;;;;;;;14.70;13.15;;;3.50;99.90;;;;;;5052127;28;20070;-71
2023/01/28 10:45:22;;;;;;;15.02;13.43;;;3.50;99.90;;;;;;5049534;28;20073;-71
2023/01/28 10:48:26;;;;;;;14.55;12.93;;;3.60;99.90;;;;;;5053318;28;20036;-71
2023/01/28 10:50:58;;;;;;;15.43;13.80;;;3.70;99.90;;;;;;5039815;28;20072;-71
2023/01/28 10:53:42;;;;;;;14.50;13.00;;;3.80;99.90;;;;;;5043775;28;20442;-69
2023/01/28 10:56:30;;;;;;;15.07;13.50;;;3.90;99.90;;;;;;5047938;28;20048;-70
2023/01/28 10:59:31;;;;;;;14.38;12.23;;;4.00;99.90;;;;;;5033168;28;20477;-70
2023/01/28 11:02:02;;;;;;;13.38;11.50;;;4.10;99.90;;;;;;5051312;28;20045;-72
2023/01/28 11:04:29;;;;;;;13.43;11.63;;;4.10;99.90;;;;;;5051702;28;20041;-70
2023/01/28 11:07:15;;;;;;;12.48;11.15;;;4.00;99.90;;;;;;5044445;28;20059;-70
2023/01/28 11:09:48;;;;;;;12.38;10.70;;;4.00;99.90;;;;;;5049528;28;20080;-70
2023/01/28 11:12:20;;;;;;;13.63;11.18;;;4.00;99.90;;;;;;5046190;28;20057;-70
2023/01/28 11:14:58;;;;;;;16.17;12.77;;;4.00;99.90;;;;;;5037054;28;20041;-70
2023/01/28 11:17:29;;;;;;;;;;;4.00;99.90;;;;;;5051858;28;20040;-70
2023/01/28 11:19:58;;;;;;;13.50;11.57;;;4.00;99.90;;;;;;5041725;28;19925;-70
2023/01/28 11:22:32;;;;;;;15.45;13.40;;;4.00;99.90;;;;;;5049120;28;20412;-70
2023/01/28 11:25:00;;;;;;;15.93;13.85;;;4.10;99.90;;;;;;5042575;28;20041;-71
2023/01/28 11:27:29;;;;;;;15.90;13.43;;;4.10;99.90;;;;;;5050845;28;20053;-72
2023/01/28 11:30:03;;;;;;;14.70;12.57;;;4.20;99.90;;;;;;5041526;28;20056;-70
2023/01/28 11:32:30;;;;;;;12.98;11.57;;;4.20;99.90;;;;;;5050237;28;20389;-77
2023/01/28 11:34:56;;;;;;;13.63;11.75;;;4.20;99.90;;;;;;5047317;28;20045;-75
2023/01/28 11:37:24;;;;;;;14.18;12.55;;;4.20;99.90;;;;;;5051002;28;20061;-78
2023/01/28 11:40:23;;;;;;;14.90;12.52;;;4.30;99.90;;;;;;5051151;28;20048;-79
2023/01/28 11:42:55;;;;;;;13.95;12.07;;;4.40;99.90;;;;;;5010806;28;20064;-76
2023/01/28 11:45:50;;;;;;;14.35;12.85;;;4.40;99.90;;;;;;5051048;28;20048;-73
2023/01/28 11:48:42;;;;;;;17.02;13.80;;;4.40;99.90;;;;;;5048163;28;20041;-70
2023/01/28 11:51:28;;;;;;;15.93;13.57;;;4.50;99.90;;;;;;5010852;28;20045;-71
2023/01/28 11:53:57;;;;;;;16.30;13.90;;;4.60;99.90;;;;;;5049619;28;20492;-71
2023/01/28 11:56:38;;;;;;;14.95;13.20;;;4.60;99.90;;;;;;5046402;28;20105;-71
2023/01/28 11:59:18;;;;;;;13.00;11.18;;;4.60;99.90;;;;;;5041314;28;20052;-71
2023/01/28 12:02:09;;;;;;;14.73;11.57;;;4.60;99.90;;;;;;5049967;28;20049;-72
2023/01/28 12:04:45;;;;;;;13.60;11.85;;;4.60;99.90;;;;;;5051369;28;20124;-72
2023/01/28 12:07:30;;;;;;;15.05;12.00;;;4.60;99.90;;;;;;5051497;28;20079;-73
2023/01/28 12:10:02;;;;;;;14.55;12.52;;;4.60;99.90;;;;;;5031099;28;20385;-71
2023/01/28 12:13:15;;;;;;;14.55;12.50;;;4.60;99.90;;;;;;5050395;28;20049;-70
2023/01/28 12:16:07;;;;;;;13.07;10.30;;;4.60;99.90;;;;;;5028156;28;20404;-73
2023/01/28 12:18:55;;;;;;;11.55;9.77;;;4.60;99.90;;;;;;5006999;28;20045;-71
2023/01/28 12:21:39;;;;;;;12.75;10.57;;;4.70;99.90;;;;;;5040079;28;20075;-70
2023/01/28 12:24:18;;;;;;;13.10;11.50;;;4.70;99.90;;;;;;5046994;28;20049;-71
2023/01/28 12:26:58;;;;;;;12.95;9.75;;;4.80;99.90;;;;;;5046936;28;20049;-72
2023/01/28 12:29:52;;;;;;;11.98;9.77;;;4.80;99.90;;;;;;5049144;28;20076;-73
2023/01/28 12:32:30;;;;;;;14.25;10.50;;;4.90;99.90;;;;;;5048614;28;20067;-73
2023/01/28 12:35:31;;;;;;;12.90;10.02;;;5.00;99.90;;;;;;5046581;28;20056;-70
2023/01/28 12:38:00;;;;;;;12.80;9.05;;;5.00;99.90;;;;;;5042604;28;20057;-70
2023/01/28 12:40:43;;;;;;;10.68;8.45;;;5.00;99.90;;;;;;5049094;28;20079;-73
2023/01/28 12:43:31;;;;;;;12.38;9.07;;;5.00;99.90;;;;;;5047521;28;20052;-74
2023/01/28 12:46:08;;;;;;;10.45;8.02;;;4.90;99.90;;;;;;5045195;28;20476;-77
2023/01/28 12:48:40;;;;;;;11.52;8.45;;;4.90;99.90;;;;;;5047554;28;20056;-70
2023/01/28 12:51:26;;;;;;;10.85;8.70;;;4.90;99.90;;;;;;5049939;28;20476;-70
2023/01/28 12:54:04;;;;;;;11.60;9.07;;;4.90;99.90;;;;;;5051308;28;20063;-70
2023/01/28 12:56:32;;;;;;;11.18;9.18;;;4.90;99.90;;;;;;5048125;28;20170;-73
2023/01/28 12:59:09;;;;;;;10.05;8.77;;;4.90;99.90;;;;;;5046762;28;20091;-72
2023/01/28 13:01:52;;;;;;;10.80;8.77;;;4.90;99.90;;;;;;5047732;28;20126;-72
2023/01/28 13:04:46;;;;;;;12.07;9.90;;;4.90;99.90;;;;;;5048901;28;20055;-71
2023/01/28 13:07:33;;;;;;;12.35;9.25;;;4.90;99.90;;;;;;5047702;28;20080;-71
2023/01/28 13:10:25;;;;;;;11.73;8.98;;;4.90;99.90;;;;;;5044822;28;20116;-71
2023/01/28 13:12:52;;;;;;;12.25;8.90;;;4.90;99.90;;;;;;5035798;28;20057;-71
2023/01/28 13:15:18;;;;;;;11.88;9.13;;;4.80;99.90;;;;;;5042479;28;20127;-71
2023/01/28 13:18:02;;;;;;;13.55;10.27;;;4.80;99.90;;;;;;5047874;28;20415;-72
2023/01/28 13:20:57;;;;;;;12.10;9.55;;;4.70;99.90;;;;;;5047767;28;20431;-70
2023/01/28 13:23:26;;;;;;;12.30;9.65;;;4.70;99.90;;;;;;5046164;28;20052;-70
2023/01/28 13:25:53;;;;;;;14.27;10.32;;;4.70;99.90;;;;;;5046764;28;20037;-70
2023/01/28 13:28:30;;;;;;;;;;;4.70;99.90;;;;;;5049448;28;20057;-70
2023/01/28 13:31:16;;;;;;;11.48;9.70;;;4.70;99.90;;;;;;5049399;28;20299;-70